Time;durP1;ratioP1;P1;durP2;ratioP2;P2;SDS_P1;SDS_P2;PMS_P1;PMS_P2;Temp;Humidity;BMP_temperature;BMP_pressure;BME280_temperature;BME280_humidity;BME280_pressure;Samples;Min_cycle;Max_cycle;Signal;HPM_P1;HPM_P2
2021/05/30 00:01:35;;;;;;;1999.90;766.42;;;;;;;15.57;97.32;99335.08;1738200;82;21316;-82
2021/05/30 00:04:40;;;;;;;1999.90;840.70;;;;;;;15.54;97.21;99336.91;1738393;82;21311;-82
2021/05/30 00:07:45;;;;;;;1999.90;850.88;;;;;;;15.54;96.96;99335.53;1737949;82;21324;-82
2021/05/30 00:10:50;;;;;;;1999.90;665.75;;;;;;;15.50;96.55;99331.56;1737911;82;21213;-82
2021/05/30 00:13:56;;;;;;;1999.90;776.85;;;;;;;15.48;96.25;99335.61;1737928;82;21637;-82
2021/05/30 00:17:01;;;;;;;1999.90;694.15;;;;;;;15.42;96.04;99331.03;1738000;82;21296;-82
2021/05/30 00:20:07;;;;;;;1999.90;523.23;;;;;;;15.40;95.93;99333.19;1737952;82;21727;-82
2021/05/30 00:23:12;;;;;;;1999.90;455.63;;;;;;;15.36;95.80;99336.94;1738268;82;21728;-82
2021/05/30 00:26:17;;;;;;;1999.90;639.80;;;;;;;15.33;95.63;99337.39;1732813;82;21862;-82
2021/05/30 00:29:21;;;;;;;1999.90;419.60;;;;;;;15.31;95.54;99336.25;1733418;82;21332;-82
2021/05/30 00:32:26;;;;;;;1999.90;397.23;;;;;;;15.29;95.46;99338.91;1734511;82;21174;-82
2021/05/30 00:35:31;;;;;;;1999.90;432.27;;;;;;;15.27;95.42;99336.94;1734594;82;21317;-82
2021/05/30 00:38:35;;;;;;;1999.90;573.85;;;;;;;15.25;95.26;99343.23;1734803;82;21787;-82
2021/05/30 00:41:41;;;;;;;1999.90;619.08;;;;;;;15.24;95.06;99357.55;1733821;82;21190;-82
2021/05/30 00:44:47;;;;;;;1999.90;247.02;;;;;;;15.21;94.86;99366.25;1733909;82;21308;-82
2021/05/30 00:47:52;;;;;;;1999.90;427.65;;;;;;;15.20;94.82;99373.38;1733430;82;21201;-82
2021/05/30 00:50:58;;;;;;;1999.90;439.97;;;;;;;15.18;94.72;99370.00;1733446;82;21792;-82
2021/05/30 00:54:03;;;;;;;1999.90;847.50;;;;;;;15.16;94.58;99363.89;1733513;82;21332;-82
2021/05/30 00:57:10;;;;;;;1999.90;811.33;;;;;;;15.14;94.50;99361.88;1732981;82;21312;-82
2021/05/30 01:00:17;;;;;;;1999.90;826.95;;;;;;;15.12;94.50;99365.41;1733419;82;21277;-82
2021/05/30 01:03:22;;;;;;;1999.90;826.15;;;;;;;15.10;94.46;99371.13;1733794;82;21856;-82
2021/05/30 01:06:28;;;;;;;1999.90;321.93;;;;;;;15.08;94.38;99369.98;1733690;82;21732;-82
2021/05/30 01:09:33;;;;;;;1999.90;705.55;;;;;;;15.09;94.40;99369.45;1727872;82;21320;-82
2021/05/30 01:12:38;;;;;;;1999.90;242.85;;;;;;;15.11;94.43;99370.08;1733408;82;21830;-82
2021/05/30 01:15:44;;;;;;;1999.90;245.78;;;;;;;15.14;94.35;99366.02;1734512;82;21273;-82
2021/05/30 01:18:52;;;;;;;1999.90;835.37;;;;;;;15.18;94.20;99379.63;1734168;82;21716;-82
2021/05/30 01:21:57;;;;;;;1999.90;813.52;;;;;;;15.21;94.04;99372.30;1733573;82;21193;-82
2021/05/30 01:25:02;;;;;;;1999.90;608.60;;;;;;;15.22;93.92;99374.81;1734298;82;21281;-82
2021/05/30 01:28:07;;;;;;;1999.90;797.23;;;;;;;15.24;93.80;99375.95;1727660;82;21189;-82
2021/05/30 01:31:12;;;;;;;1999.90;999.90;;;;;;;15.27;93.60;99386.53;1736069;82;21276;-82
2021/05/30 01:34:18;;;;;;;1999.90;999.90;;;;;;;15.27;93.34;99383.23;1734859;82;21308;-82
2021/05/30 01:37:24;;;;;;;1999.90;800.95;;;;;;;15.26;92.99;99383.47;1728473;82;21293;-82
2021/05/30 01:40:29;;;;;;;1941.08;782.92;;;;;;;15.23;92.71;99382.00;1734481;82;21272;-82
2021/05/30 01:43:34;;;;;;;1999.90;999.90;;;;;;;15.16;92.28;99389.52;1735690;82;21142;-82
2021/05/30 01:46:39;;;;;;;1928.28;772.95;;;;;;;15.08;91.93;99396.16;1734839;82;21170;-82
2021/05/30 01:49:44;;;;;;;1999.90;999.90;;;;;;;15.00;91.85;99392.84;1735470;82;21308;-82
2021/05/30 01:52:48;;;;;;;1999.90;999.90;;;;;;;14.95;91.92;99392.15;1735624;82;21308;-82
2021/05/30 01:59:03;;;;;;;1999.90;999.90;;;;;;;14.88;92.47;99388.64;1734892;82;21302;-82
2021/05/30 02:02:08;;;;;;;1999.90;793.55;;;;;;;14.88;92.68;99396.90;1734871;82;21157;-82
2021/05/30 02:05:15;;;;;;;1999.90;999.90;;;;;;;14.92;92.68;99399.52;1735127;82;21170;-82
2021/05/30 02:08:19;;;;;;;1999.90;999.90;;;;;;;14.95;92.62;99400.95;1734273;82;21327;-82
2021/05/30 02:11:24;;;;;;;1999.90;999.90;;;;;;;14.97;92.58;99394.16;1735631;82;21324;-82
2021/05/30 02:14:29;;;;;;;1999.90;999.90;;;;;;;15.00;92.69;99401.95;1735580;82;21317;-82
2021/05/30 02:17:33;;;;;;;1999.90;999.90;;;;;;;15.01;92.76;99396.77;1734929;82;21344;-82
2021/05/30 02:20:48;;;;;;;1999.90;999.90;;;;;;;15.07;92.90;99398.61;1736050;82;21722;-82
2021/05/30 02:23:53;;;;;;;1999.90;999.90;;;;;;;15.21;92.89;99403.44;1733615;82;21337;-82
2021/05/30 02:26:58;;;;;;;1999.90;999.90;;;;;;;15.40;92.14;99413.94;1736585;82;21909;-82
2021/05/30 02:30:05;;;;;;;1999.90;999.90;;;;;;;15.61;91.46;99416.75;1735818;82;21305;-82
2021/05/30 02:33:10;;;;;;;1999.90;999.90;;;;;;;15.91;90.39;99429.78;1735686;82;21201;-82
2021/05/30 02:36:16;;;;;;;1999.90;999.90;;;;;;;16.15;88.45;99442.60;1735178;82;21277;-82
2021/05/30 02:39:21;;;;;;;1999.90;999.90;;;;;;;16.35;86.77;99442.31;1735048;82;22473;-82
2021/05/30 02:42:26;;;;;;;1999.90;999.90;;;;;;;16.55;85.59;99446.14;1736064;82;22237;-82
2021/05/30 02:45:32;;;;;;;1999.90;999.90;;;;;;;16.74;84.05;99448.31;1735700;82;21277;-82
2021/05/30 02:48:37;;;;;;;1999.90;999.90;;;;;;;16.94;83.14;99447.97;1735594;82;21328;-82
2021/05/30 02:51:42;;;;;;;1999.90;999.90;;;;;;;17.17;81.48;99450.75;1735794;82;21700;-82
2021/05/30 02:54:47;;;;;;;1999.90;999.90;;;;;;;17.35;79.96;99453.94;1735134;82;21324;-82
2021/05/30 02:57:52;;;;;;;1999.90;999.90;;;;;;;17.43;79.25;99445.28;1734793;82;21304;-82
2021/05/30 03:00:58;;;;;;;1999.90;999.90;;;;;;;17.65;78.25;99448.81;1735597;82;21333;-82
2021/05/30 03:04:02;;;;;;;1999.90;999.90;;;;;;;17.79;77.21;99436.43;1734455;82;21491;-82
2021/05/30 03:07:07;;;;;;;1999.90;999.90;;;;;;;17.86;76.62;99446.80;1734249;82;21177;-82
2021/05/30 03:10:13;;;;;;;1999.90;999.90;;;;;;;17.88;76.01;99439.11;1733822;82;21870;-82
2021/05/30 03:13:18;;;;;;;1999.90;999.90;;;;;;;17.90;76.18;99433.33;1728763;82;21352;-82
2021/05/30 03:16:24;;;;;;;1999.90;999.90;;;;;;;17.96;76.05;99430.41;1711527;82;21276;-82
2021/05/30 03:19:29;;;;;;;1999.90;999.90;;;;;;;18.01;75.39;99432.44;1735189;82;21215;-82
2021/05/30 03:22:34;;;;;;;1999.90;999.90;;;;;;;18.04;75.61;99431.41;1735397;82;21268;-82
2021/05/30 03:25:39;;;;;;;1999.90;999.90;;;;;;;18.19;75.32;99445.24;1730066;82;21229;-83
2021/05/30 03:28:45;;;;;;;1999.90;999.90;;;;;;;18.31;74.58;99440.51;1734673;82;21296;-83
2021/05/30 03:31:51;;;;;;;1999.90;999.90;;;;;;;18.42;74.22;99437.37;1735406;82;21166;-83
2021/05/30 03:34:57;;;;;;;1999.90;999.90;;;;;;;18.51;73.45;99442.27;1735109;82;21838;-83
2021/05/30 03:38:04;;;;;;;1999.90;999.90;;;;;;;18.57;72.91;99432.95;1734460;82;21335;-83
2021/05/30 03:41:11;;;;;;;1999.90;999.90;;;;;;;18.59;72.58;99432.17;1729624;82;21280;-83
2021/05/30 03:44:16;;;;;;;1999.90;999.90;;;;;;;18.63;72.67;99438.02;1735144;82;21174;-82
2021/05/30 03:47:21;;;;;;;1999.90;999.90;;;;;;;18.58;72.70;99441.58;1734529;82;21285;-82
2021/05/30 03:50:26;;;;;;;1999.90;999.90;;;;;;;18.58;73.12;99445.73;1734788;82;21814;-83
2021/05/30 03:53:30;;;;;;;1999.90;999.90;;;;;;;18.59;72.82;99452.94;1729992;82;21296;-83
2021/05/30 03:56:36;;;;;;;1999.90;999.90;;;;;;;18.53;73.07;99451.14;1729473;82;21146;-83
2021/05/30 03:59:40;;;;;;;1999.90;999.90;;;;;;;18.53;73.08;99455.30;1728998;82;21293;-82
2021/05/30 04:02:44;;;;;;;1999.90;999.90;;;;;;;18.52;73.41;99460.55;1734677;82;21312;-82
2021/05/30 04:05:50;;;;;;;1999.90;999.90;;;;;;;18.47;73.15;99462.39;1735236;82;21716;-82
2021/05/30 04:08:55;;;;;;;1999.90;999.90;;;;;;;18.36;73.94;99462.20;1734430;82;21854;-83
2021/05/30 04:11:59;;;;;;;1999.90;999.90;;;;;;;18.34;74.07;99457.98;1735914;82;21913;-83
2021/05/30 04:15:04;;;;;;;1999.90;999.90;;;;;;;18.25;73.98;99458.09;1735509;82;21300;-82
2021/05/30 04:18:09;;;;;;;1999.90;999.90;;;;;;;18.17;73.69;99456.57;1735933;82;21333;-83
2021/05/30 04:21:13;;;;;;;1999.90;999.90;;;;;;;18.11;74.73;99462.55;1735395;82;21304;-82
2021/05/30 04:24:18;;;;;;;1999.90;999.90;;;;;;;18.17;74.75;99461.27;1735667;82;21308;-83
2021/05/30 04:27:24;;;;;;;1999.90;999.90;;;;;;;18.22;73.83;99458.60;1735730;82;21152;-83
2021/05/30 04:30:30;;;;;;;1999.90;999.90;;;;;;;18.22;73.92;99461.37;1726463;82;21178;-82
2021/05/30 04:33:35;;;;;;;1999.90;999.90;;;;;;;18.24;73.57;99470.25;1737776;82;21201;-83
2021/05/30 04:36:40;;;;;;;1999.90;999.90;;;;;;;18.28;74.29;99464.52;1738335;82;21198;-82
2021/05/30 04:39:45;;;;;;;1999.90;999.90;;;;;;;18.34;73.38;99469.90;1737298;82;21826;-82
2021/05/30 04:42:50;;;;;;;1999.90;999.90;;;;;;;18.25;73.10;99464.45;1737490;82;21201;-82
2021/05/30 04:45:54;;;;;;;1999.90;999.90;;;;;;;18.09;73.60;99465.26;1738053;82;21831;-83
2021/05/30 04:49:00;;;;;;;1999.90;999.90;;;;;;;18.02;73.92;99461.77;1738045;82;21181;-82
2021/05/30 04:52:05;;;;;;;1999.90;999.90;;;;;;;18.03;74.40;99462.94;1729514;82;21276;-83
2021/05/30 04:55:14;;;;;;;1999.90;999.90;;;;;;;18.10;73.99;99460.84;1737988;82;21835;-83
2021/05/30 04:58:18;;;;;;;1999.90;999.90;;;;;;;18.19;73.76;99461.85;1737776;82;21850;-83
2021/05/30 05:01:11;;;;;;;1999.90;999.90;;;;;;;18.26;72.96;99462.02;1728506;82;21307;-82
2021/05/30 05:04:16;;;;;;;1999.90;999.90;;;;;;;18.34;71.70;99468.52;1737792;82;21217;-82
2021/05/30 05:07:21;;;;;;;1999.90;999.90;;;;;;;18.37;71.82;99458.89;1737789;82;21281;-82
2021/05/30 05:10:26;;;;;;;1999.90;999.90;;;;;;;18.46;72.51;99457.95;1737961;82;21284;-82
2021/05/30 05:13:32;;;;;;;1999.90;999.90;;;;;;;18.52;70.75;99457.78;1737607;82;21169;-82
2021/05/30 05:16:36;;;;;;;1999.90;999.90;;;;;;;18.59;70.82;99459.03;1737910;82;21304;-82
2021/05/30 05:19:42;;;;;;;1999.90;999.90;;;;;;;18.65;71.03;99456.63;1737967;82;21728;-82
2021/05/30 05:22:46;;;;;;;1999.90;999.90;;;;;;;18.73;70.29;99458.20;1737896;82;21303;-82
2021/05/30 05:25:51;;;;;;;1999.90;999.90;;;;;;;18.75;68.94;99453.23;1737686;82;21828;-82
2021/05/30 05:28:56;;;;;;;1999.90;999.90;;;;;;;18.78;69.59;99458.28;1737584;82;21300;-82
2021/05/30 05:32:01;;;;;;;1999.90;999.90;;;;;;;18.89;69.88;99461.52;1737230;82;21189;-82
2021/05/30 05:35:07;;;;;;;1999.90;999.90;;;;;;;19.00;69.15;99457.80;1737441;82;21879;-82
2021/05/30 05:38:11;;;;;;;1999.90;864.78;;;;;;;19.04;68.26;99460.37;1737722;82;21352;-82
2021/05/30 05:41:17;;;;;;;1999.90;910.45;;;;;;;19.03;65.95;99471.17;1738173;82;21304;-82
2021/05/30 05:44:22;;;;;;;1999.90;877.28;;;;;;;19.15;67.15;99478.86;1738645;82;21918;-82
2021/05/30 05:47:27;;;;;;;1999.90;670.90;;;;;;;19.20;63.88;99475.88;1738364;82;21190;-82
2021/05/30 05:50:32;;;;;;;1999.90;939.83;;;;;;;19.19;62.99;99473.63;1737879;82;21273;-82
2021/05/30 05:53:38;;;;;;;1999.90;959.25;;;;;;;19.22;64.99;99483.39;1738394;82;21783;-82
2021/05/30 05:56:43;;;;;;;1999.90;999.90;;;;;;;19.32;64.39;99488.54;1737880;82;21280;-82
2021/05/30 05:59:49;;;;;;;1999.90;959.17;;;;;;;19.42;64.80;99476.77;1737659;82;21886;-82
2021/05/30 06:02:56;;;;;;;1999.90;993.95;;;;;;;19.40;62.52;99476.19;1737992;82;21703;-82
2021/05/30 06:06:02;;;;;;;1999.90;820.95;;;;;;;19.37;61.48;99489.16;1737975;82;21276;-82
2021/05/30 06:09:07;;;;;;;1999.90;997.80;;;;;;;19.38;62.44;99493.09;1737883;82;21699;-82
2021/05/30 06:12:13;;;;;;;1999.90;999.90;;;;;;;19.42;62.91;99482.31;1737269;82;21162;-82
2021/05/30 06:15:20;;;;;;;1999.90;930.38;;;;;;;19.51;63.23;99484.94;1737749;82;21730;-82
2021/05/30 06:18:27;;;;;;;1999.90;922.33;;;;;;;19.63;61.35;99493.20;1737841;82;21197;-82
2021/05/30 06:21:32;;;;;;;1999.90;992.28;;;;;;;19.61;60.11;99497.60;1737468;82;21225;-82
2021/05/30 06:24:37;;;;;;;1999.90;999.90;;;;;;;19.58;61.73;99492.55;1738191;82;21752;-82
2021/05/30 06:27:43;;;;;;;1999.90;999.90;;;;;;;19.59;62.46;99490.06;1738785;82;21304;-82
2021/05/30 06:30:49;;;;;;;1999.90;976.25;;;;;;;19.64;62.50;99486.55;1737225;82;21308;-82
2021/05/30 06:33:54;;;;;;;1999.90;999.90;;;;;;;19.75;63.00;99495.85;1738167;82;21273;-82
2021/05/30 06:36:59;;;;;;;1999.90;999.90;;;;;;;19.84;63.55;99498.48;1738295;82;21796;-82
2021/05/30 06:40:04;;;;;;;1999.90;938.72;;;;;;;19.96;63.10;99502.53;1738008;82;21142;-82
2021/05/30 06:43:10;;;;;;;1999.90;995.90;;;;;;;20.02;61.68;99507.89;1737711;82;21304;-82
2021/05/30 06:46:14;;;;;;;1999.90;948.25;;;;;;;20.00;61.40;99515.64;1738360;82;21288;-82
2021/05/30 06:49:20;;;;;;;1999.90;999.90;;;;;;;20.06;61.29;99522.94;1737945;82;21304;-82
2021/05/30 06:52:25;;;;;;;1999.90;999.90;;;;;;;20.09;60.08;99525.72;1738476;82;21284;-82
2021/05/30 06:55:30;;;;;;;1999.90;959.80;;;;;;;20.07;60.54;99523.22;1738113;82;21839;-82
2021/05/30 06:58:35;;;;;;;1999.90;935.28;;;;;;;20.04;60.77;99519.59;1737635;82;21316;-82
2021/05/30 07:01:41;;;;;;;1999.90;999.90;;;;;;;19.96;60.40;99528.91;1738030;82;21355;-82
2021/05/30 07:04:45;;;;;;;1999.90;918.77;;;;;;;19.97;60.14;99523.64;1738211;82;21838;-82
2021/05/30 07:07:51;;;;;;;1999.90;999.38;;;;;;;20.04;59.27;99545.95;1737792;82;21905;-82
2021/05/30 07:10:56;;;;;;;1999.90;999.90;;;;;;;20.04;58.96;99526.53;1737588;82;21822;-82
2021/05/30 07:14:04;;;;;;;1999.90;999.90;;;;;;;20.04;59.34;99544.57;1737490;82;21304;-82
2021/05/30 07:17:09;;;;;;;1999.90;999.90;;;;;;;20.06;58.50;99538.20;1738193;82;21824;-82
2021/05/30 07:20:16;;;;;;;1999.90;934.30;;;;;;;20.16;60.45;99544.44;1737918;82;21210;-82
2021/05/30 07:23:21;;;;;;;1999.90;868.25;;;;;;;20.27;58.81;99535.67;1737290;82;21324;-82
2021/05/30 07:26:27;;;;;;;1999.90;984.28;;;;;;;20.34;57.98;99543.28;1738068;82;21264;-82
2021/05/30 07:29:33;;;;;;;1999.90;999.90;;;;;;;20.41;58.79;99546.13;1737746;82;21197;-82
2021/05/30 07:32:39;;;;;;;1999.90;825.07;;;;;;;20.46;58.14;99545.35;1734837;82;21767;-82
2021/05/30 07:35:44;;;;;;;1999.90;999.90;;;;;;;20.52;58.42;99547.70;1734629;82;21220;-82
2021/05/30 07:38:49;;;;;;;1824.70;731.65;;;;;;;20.54;57.77;99564.38;1734958;82;21324;-82
2021/05/30 07:41:55;;;;;;;1999.90;878.42;;;;;;;20.53;56.52;99551.59;1733939;82;21317;-82
2021/05/30 07:45:00;;;;;;;1999.90;902.30;;;;;;;20.50;56.85;99563.21;1735110;82;21277;-82
2021/05/30 07:48:05;;;;;;;1615.47;658.75;;;;;;;20.56;57.28;99559.42;1733983;82;21828;-82
2021/05/30 07:51:10;;;;;;;1999.90;999.90;;;;;;;20.75;56.74;99563.20;1734800;82;21335;-82
2021/05/30 07:54:17;;;;;;;1607.70;504.90;;;;;;;20.88;57.71;99568.36;1733540;82;21859;-82
2021/05/30 07:57:22;;;;;;;1999.90;572.70;;;;;;;21.00;56.16;99562.66;1734381;82;21265;-82
2021/05/30 08:00:29;;;;;;;1975.43;704.00;;;;;;;21.05;54.00;99567.71;1734460;82;21193;-82
2021/05/30 08:03:34;;;;;;;1999.90;573.80;;;;;;;21.08;56.07;99566.36;1734126;82;21316;-82
2021/05/30 08:06:39;;;;;;;431.02;370.37;;;;;;;21.14;54.29;99581.42;1733858;82;22083;-82
2021/05/30 08:09:44;;;;;;;209.18;192.03;;;;;;;21.17;54.69;99571.70;1733501;82;21333;-82
2021/05/30 08:12:49;;;;;;;296.10;270.73;;;;;;;21.24;53.31;99578.45;1733980;82;21234;-82
2021/05/30 08:15:55;;;;;;;294.52;269.77;;;;;;;21.28;54.04;99586.02;1734335;82;21795;-82
2021/05/30 08:19:00;;;;;;;825.10;469.58;;;;;;;21.29;54.31;99575.16;1733182;82;21590;-82
2021/05/30 08:22:05;;;;;;;594.20;332.15;;;;;;;21.34;54.14;99585.53;1732373;82;21165;-82
2021/05/30 08:25:12;;;;;;;1999.90;646.55;;;;;;;21.44;54.26;99584.22;1734531;82;21879;-82
2021/05/30 08:28:18;;;;;;;236.72;216.42;;;;;;;21.56;55.05;99600.75;1735234;82;21917;-82
2021/05/30 08:31:23;;;;;;;407.85;367.98;;;;;;;21.63;53.09;99584.09;1734195;82;21273;-82
2021/05/30 08:34:29;;;;;;;1810.20;599.80;;;;;;;21.67;52.95;99588.03;1734504;82;21182;-82
2021/05/30 08:37:34;;;;;;;194.17;179.63;;;;;;;21.58;54.23;99597.97;1734292;82;21272;-82
2021/05/30 08:40:40;;;;;;;995.37;581.60;;;;;;;21.52;53.16;99591.25;1734508;82;21779;-82
2021/05/30 08:43:45;;;;;;;944.60;433.48;;;;;;;21.58;54.55;99597.97;1733949;82;21771;-82
2021/05/30 08:46:51;;;;;;;1121.40;393.23;;;;;;;21.72;55.92;99594.74;1733880;82;21324;-82
2021/05/30 08:49:59;;;;;;;153.20;141.20;;;;;;;21.77;53.76;99594.78;1733486;82;21855;-82
2021/05/30 08:53:06;;;;;;;222.55;203.73;;;;;;;21.84;52.49;99598.19;1734247;82;21359;-82
2021/05/30 08:56:16;;;;;;;270.05;177.75;;;;;;;21.98;53.72;99597.16;1733631;82;21740;-82
2021/05/30 08:59:41;;;;;;;167.70;153.57;;;;;;;22.17;51.15;99609.02;1734123;82;21800;-82
2021/05/30 09:02:45;;;;;;;113.03;104.53;;;;;;;22.30;51.10;99604.05;1734473;82;22011;-82
2021/05/30 09:05:53;;;;;;;117.82;106.92;;;;;;;22.47;51.28;99607.48;1734630;82;21728;-82
2021/05/30 09:09:02;;;;;;;129.47;119.30;;;;;;;22.59;50.03;99612.84;1733970;82;21348;-82
2021/05/30 09:12:10;;;;;;;148.25;136.47;;;;;;;22.62;50.98;99610.89;1734338;82;21281;-82
2021/05/30 09:15:22;;;;;;;66.40;61.20;;;;;;;22.75;50.92;99613.17;1735338;82;21808;-82
2021/05/30 09:18:36;;;;;;;38.08;35.15;;;;;;;22.77;48.23;99624.05;1734925;82;21831;-82
2021/05/30 09:21:42;;;;;;;37.60;34.90;;;;;;;22.61;47.87;99620.37;1733543;82;21308;-82
2021/05/30 09:24:47;;;;;;;43.00;39.80;;;;;;;22.57;48.27;99612.27;1733994;82;21213;-82
2021/05/30 09:28:06;;;;;;;57.48;53.35;;;;;;;22.58;47.31;99620.34;1728394;82;21319;-82
2021/05/30 09:31:11;;;;;;;48.80;45.10;;;;;;;22.60;48.50;99618.14;1733472;82;21154;-83
2021/05/30 09:34:36;;;;;;;44.75;40.90;;;;;;;22.60;49.19;99620.92;1735122;82;21399;-82
2021/05/30 09:37:42;;;;;;;63.05;58.05;;;;;;;22.59;48.26;99624.83;1737919;82;21249;-82
2021/05/30 09:40:58;;;;;;;38.02;34.80;;;;;;;22.44;48.42;99613.59;1729414;82;21265;-82
2021/05/30 09:44:04;;;;;;;617.87;131.50;;;;;;;22.23;47.66;99623.80;1737507;82;21836;-82
2021/05/30 09:47:09;;;;;;;84.72;78.42;;;;;;;22.14;49.09;99622.63;1737834;82;21161;-82
2021/05/30 09:50:18;;;;;;;91.72;84.62;;;;;;;22.16;50.49;99616.22;1737724;82;21177;-82
2021/05/30 09:53:24;;;;;;;56.55;52.58;;;;;;;22.23;49.00;99614.61;1738520;82;21197;-83
2021/05/30 09:56:45;;;;;;;51.08;47.30;;;;;;;22.31;49.61;99626.64;1738184;82;21308;-82
2021/05/30 09:59:50;;;;;;;52.30;48.50;;;;;;;22.36;48.97;99621.09;1737891;82;21316;-82
2021/05/30 10:02:57;;;;;;;68.33;63.35;;;;;;;22.39;49.66;99626.94;1729475;82;21201;-82
2021/05/30 10:06:03;;;;;;;64.53;59.75;;;;;;;22.54;49.62;99624.81;1737172;82;21960;-83
2021/05/30 10:09:08;;;;;;;51.65;47.45;;;;;;;22.76;49.36;99630.73;1737646;82;21299;-82
2021/05/30 10:12:14;;;;;;;39.10;36.35;;;;;;;22.90;47.34;99641.70;1738061;82;21851;-82
2021/05/30 10:15:22;;;;;;;52.43;48.58;;;;;;;23.05;46.64;99638.95;1738115;82;21610;-82
2021/05/30 10:18:49;;;;;;;43.98;40.78;;;;;;;23.22;47.08;99637.33;1737817;82;21308;-82
2021/05/30 10:22:00;;;;;;;44.05;40.78;;;;;;;23.35;46.32;99626.20;1737960;82;21348;-83
2021/05/30 10:25:06;;;;;;;31.65;29.20;;;;;;;23.40;47.31;99629.83;1729994;82;21296;-82
2021/05/30 10:28:19;;;;;;;41.45;37.80;;;;;;;23.35;46.27;99625.64;1737194;82;21771;-83
2021/05/30 10:31:35;;;;;;;61.02;56.33;;;;;;;23.34;46.28;99625.36;1737947;82;21154;-83
2021/05/30 10:34:41;;;;;;;45.08;41.63;;;;;;;23.34;44.96;99631.50;1738323;82;21917;-82
2021/05/30 10:37:54;;;;;;;34.05;31.48;;;;;;;23.18;45.72;99639.82;1737957;82;21522;-82
2021/05/30 10:41:01;;;;;;;34.95;32.45;;;;;;;23.05;46.25;99645.08;1730892;82;21312;-82
2021/05/30 10:44:06;;;;;;;32.28;29.95;;;;;;;23.01;47.06;99632.27;1731133;82;21304;-82
2021/05/30 10:47:12;;;;;;;41.28;38.02;;;;;;;23.10;46.92;99635.33;1731001;82;21189;-82
2021/05/30 10:50:24;;;;;;;46.63;42.98;;;;;;;23.18;46.79;99639.82;1738155;82;21276;-83
2021/05/30 10:53:55;;;;;;;9.13;8.40;;;;;;;23.31;47.11;99635.67;1730809;82;21289;-83
2021/05/30 10:57:05;;;;;;;47.58;44.03;;;;;;;23.35;43.37;99631.78;1679171;85;21290;-82
2021/05/30 11:00:29;;;;;;;31.48;29.25;;;;;;;23.33;45.76;99647.94;1737974;82;21146;-82
2021/05/30 11:03:36;;;;;;;57.48;52.85;;;;;;;23.27;45.86;99637.89;1737695;82;21309;-83
2021/05/30 11:06:51;;;;;;;45.83;42.50;;;;;;;23.24;45.96;99655.17;1737327;82;21193;-82
2021/05/30 11:10:02;;;;;;;28.15;26.15;;;;;;;23.17;46.04;99654.89;1736262;81;21217;-82
2021/05/30 11:13:07;;;;;;;21.15;19.67;;;;;;;22.99;45.47;99657.34;1738205;82;21830;-82
2021/05/30 11:16:16;;;;;;;33.40;31.07;;;;;;;22.76;44.83;99661.41;1737946;82;21834;-82
2021/05/30 11:19:24;;;;;;;31.75;29.35;;;;;;;22.62;46.13;99652.70;1730155;82;21316;-82
2021/05/30 11:22:30;;;;;;;34.10;31.65;;;;;;;22.66;47.56;99654.67;1737310;81;21166;-82
2021/05/30 11:25:51;;;;;;;30.02;27.85;;;;;;;22.86;48.03;99653.08;1727404;82;21291;-83
2021/05/30 11:28:58;;;;;;;9.63;8.80;;;;;;;22.98;46.35;99650.93;1737523;82;21308;-82
2021/05/30 11:32:04;;;;;;;10.70;9.68;;;;;;;23.09;43.83;99655.41;1730990;82;21189;-82
2021/05/30 11:35:09;;;;;;;37.00;34.30;;;;;;;23.12;44.68;99657.67;1738116;82;21594;-82
2021/05/30 11:38:15;;;;;;;25.23;23.38;;;;;;;23.12;45.19;99667.98;1727694;82;21875;-82
2021/05/30 11:41:40;;;;;;;37.73;34.98;;;;;;;22.97;46.12;99663.77;1729465;82;21206;-82
2021/05/30 11:44:47;;;;;;;28.70;26.55;;;;;;;22.85;46.38;99666.73;1737887;82;21229;-82
2021/05/30 11:47:57;;;;;;;24.43;22.67;;;;;;;22.93;45.74;99666.25;1728574;82;21190;-82
2021/05/30 11:51:02;;;;;;;62.85;41.55;;;;;;;22.99;45.48;99665.15;1738404;82;21276;-82
2021/05/30 11:54:12;;;;;;;36.35;33.60;;;;;;;23.08;46.06;99668.25;1728928;82;21906;-82
2021/05/30 11:57:19;;;;;;;20.20;18.77;;;;;;;23.04;44.11;99683.85;1737951;82;21819;-82
2021/05/30 12:00:25;;;;;;;37.83;34.95;;;;;;;22.93;45.19;99674.06;1729308;82;21177;-82
2021/05/30 12:03:32;;;;;;;38.83;36.00;;;;;;;22.90;45.27;99680.73;1737825;82;21335;-82
2021/05/30 12:06:49;;;;;;;28.25;26.27;;;;;;;22.92;45.76;99672.39;1737789;82;21186;-82
2021/05/30 12:10:00;;;;;;;58.80;54.42;;;;;;;22.94;46.11;99686.05;1738281;82;21275;-82
2021/05/30 12:13:06;;;;;;;29.82;27.65;;;;;;;22.91;46.00;99685.19;1736888;82;21725;-82
2021/05/30 12:16:26;;;;;;;24.95;23.18;;;;;;;22.90;45.62;99677.94;1737045;82;21284;-82
2021/05/30 12:19:38;;;;;;;49.08;45.28;;;;;;;22.97;45.62;99687.47;1727977;82;21744;-82
2021/05/30 12:22:43;;;;;;;22.55;20.62;;;;;;;23.09;47.07;99688.05;1737165;82;21364;-82
2021/05/30 12:26:06;;;;;;;30.65;27.93;;;;;;;23.16;45.01;99696.45;1738284;82;21309;-82
2021/05/30 12:29:11;;;;;;;29.42;27.37;;;;;;;23.11;45.27;99694.22;1737725;82;21894;-82
2021/05/30 12:32:17;;;;;;;130.70;78.15;;;;;;;23.09;46.00;99698.65;1729437;82;21281;-82
2021/05/30 12:35:21;;;;;;;62.78;58.13;;;;;;;23.04;46.10;99701.42;1737675;82;21268;-82
2021/05/30 12:38:30;;;;;;;18.57;17.07;;;;;;;23.00;46.07;99707.25;1737642;82;21344;-82
2021/05/30 12:41:42;;;;;;;36.50;33.67;;;;;;;22.94;45.50;99704.17;1737669;82;21221;-82
2021/05/30 12:44:57;;;;;;;33.63;31.25;;;;;;;22.93;46.04;99703.90;1738060;82;21277;-82
2021/05/30 12:48:02;;;;;;;15.68;14.58;;;;;;;23.00;45.52;99704.47;1736212;82;21740;-82
2021/05/30 12:51:09;;;;;;;7.97;6.17;;;;;;;23.06;45.75;99706.19;1727233;82;21689;-82
2021/05/30 12:54:26;;;;;;;16.90;15.60;;;;;;;23.09;43.79;99701.44;1728963;82;21285;-82
2021/05/30 12:57:51;;;;;;;15.90;11.18;;;;;;;23.11;44.91;99704.81;1737496;82;21281;-82
2021/05/30 13:00:56;;;;;;;20.37;18.65;;;;;;;23.15;44.23;99710.13;1737053;82;21280;-82
2021/05/30 13:04:03;;;;;;;21.15;19.32;;;;;;;23.15;43.88;99698.97;1737849;82;21332;-82
2021/05/30 13:07:18;;;;;;;11.12;10.28;;;;;;;23.14;43.88;99704.23;1737953;82;21336;-82
2021/05/30 13:10:23;;;;;;;16.80;15.50;;;;;;;23.09;44.18;99700.05;1738255;82;21273;-82
2021/05/30 13:13:46;;;;;;;19.67;18.25;;;;;;;23.09;44.00;99712.59;1729273;82;21736;-82
2021/05/30 13:16:52;;;;;;;32.58;30.10;;;;;;;23.06;45.11;99713.16;1737851;82;21281;-82
2021/05/30 13:20:19;;;;;;;22.32;17.82;;;;;;;23.02;45.40;99713.42;1737627;82;21280;-82
2021/05/30 13:23:37;;;;;;;10.15;9.40;;;;;;;23.00;44.23;99714.23;1738342;82;21285;-82
2021/05/30 13:27:00;;;;;;;14.13;13.05;;;;;;;22.94;43.36;99710.59;1738464;82;21793;-82
2021/05/30 13:30:19;;;;;;;9.80;8.93;;;;;;;22.87;44.16;99721.69;1737592;82;21268;-82
2021/05/30 13:33:25;;;;;;;13.30;12.23;;;;;;;22.88;44.14;99721.97;1738044;82;21297;-82
2021/05/30 13:36:35;;;;;;;30.00;27.67;;;;;;;22.87;44.25;99710.55;1738268;82;21300;-82
2021/05/30 13:39:38;;;;;;;20.17;18.57;;;;;;;22.93;44.60;99715.05;1735935;82;21157;-82
2021/05/30 13:42:44;;;;;;;12.20;11.05;;;;;;;22.94;44.60;99712.54;1735306;82;22131;-82
2021/05/30 13:45:48;;;;;;;9.55;8.88;;;;;;;22.91;44.39;99725.63;1735426;82;21292;-82
2021/05/30 13:48:54;;;;;;;11.70;10.08;;;;;;;22.85;44.55;99729.47;1733785;82;21303;-82
2021/05/30 13:52:00;;;;;;;15.38;14.18;;;;;;;22.79;44.63;99731.96;1735500;82;21274;-82
2021/05/30 13:55:06;;;;;;;11.65;10.55;;;;;;;22.77;45.37;99735.55;1735577;82;21213;-82
2021/05/30 13:58:13;;;;;;;20.40;18.82;;;;;;;22.80;44.54;99730.84;1733923;82;21320;-82
2021/05/30 14:01:20;;;;;;;12.82;10.40;;;;;;;22.84;44.39;99733.38;1735861;82;21280;-82
2021/05/30 14:04:24;;;;;;;15.38;13.98;;;;;;;22.84;43.93;99734.21;1735183;82;21338;-82